sensor_id;sensor_type;location;lat;lon;timestamp;pressure;altitude;pressure_sealevel;temperature;humidity
58668;BME280;59852;43.086;25.634;2024-01-06T00:02:14;98560.88;;;10.69;nan
58668;BME280;59852;43.086;25.634;2024-01-06T00:04:39;98568.00;;;10.67;nan
58668;BME280;59852;43.086;25.634;2024-01-06T00:07:04;98570.75;;;10.66;nan
58668;BME280;59852;43.086;25.634;2024-01-06T00:09:30;98564.69;;;10.65;nan
58668;BME280;59852;43.086;25.634;2024-01-06T00:11:55;98574.19;;;10.66;nan
58668;BME280;59852;43.086;25.634;2024-01-06T00:14:20;98569.78;;;10.67;nan
58668;BME280;59852;43.086;25.634;2024-01-06T00:16:46;98567.41;;;10.63;nan
58668;BME280;59852;43.086;25.634;2024-01-06T00:19:11;98583.91;;;10.53;nan
58668;BME280;59852;43.086;25.634;2024-01-06T00:21:36;98581.44;;;10.39;nan
58668;BME280;59852;43.086;25.634;2024-01-06T00:24:02;98570.91;;;10.51;nan
58668;BME280;59852;43.086;25.634;2024-01-06T00:26:27;98572.94;;;10.48;nan
58668;BME280;59852;43.086;25.634;2024-01-06T00:28:52;98568.50;;;10.37;nan
58668;BME280;59852;43.086;25.634;2024-01-06T00:31:18;98557.53;;;10.32;nan
58668;BME280;59852;43.086;25.634;2024-01-06T00:33:44;98561.91;;;10.31;nan
58668;BME280;59852;43.086;25.634;2024-01-06T00:36:09;98546.47;;;10.28;nan
58668;BME280;59852;43.086;25.634;2024-01-06T00:38:35;98536.84;;;10.29;nan
58668;BME280;59852;43.086;25.634;2024-01-06T00:41:01;98536.88;;;10.40;nan
58668;BME280;59852;43.086;25.634;2024-01-06T00:43:26;98547.47;;;10.39;nan
58668;BME280;59852;43.086;25.634;2024-01-06T00:45:51;98531.91;;;10.37;nan
58668;BME280;59852;43.086;25.634;2024-01-06T00:48:17;98524.41;;;10.32;nan
58668;BME280;59852;43.086;25.634;2024-01-06T00:50:42;98527.22;;;10.29;nan
58668;BME280;59852;43.086;25.634;2024-01-06T00:53:07;98519.66;;;10.38;nan
58668;BME280;59852;43.086;25.634;2024-01-06T00:55:33;98519.53;;;10.39;nan
58668;BME280;59852;43.086;25.634;2024-01-06T00:57:58;98517.88;;;10.38;nan
58668;BME280;59852;43.086;25.634;2024-01-06T01:00:23;98506.25;;;10.42;nan
58668;BME280;59852;43.086;25.634;2024-01-06T01:02:48;98506.59;;;10.49;nan
58668;BME280;59852;43.086;25.634;2024-01-06T01:05:14;98500.16;;;10.42;nan
58668;BME280;59852;43.086;25.634;2024-01-06T01:07:39;98502.69;;;10.43;nan
58668;BME280;59852;43.086;25.634;2024-01-06T01:10:04;98509.59;;;10.44;nan
58668;BME280;59852;43.086;25.634;2024-01-06T01:12:31;98516.09;;;10.39;nan
58668;BME280;59852;43.086;25.634;2024-01-06T01:14:56;98510.25;;;10.35;nan
58668;BME280;59852;43.086;25.634;2024-01-06T01:17:22;98499.19;;;10.31;nan
58668;BME280;59852;43.086;25.634;2024-01-06T01:19:47;98499.09;;;10.33;nan
58668;BME280;59852;43.086;25.634;2024-01-06T01:22:12;98502.97;;;10.27;nan
58668;BME280;59852;43.086;25.634;2024-01-06T01:24:38;98512.09;;;10.22;nan
58668;BME280;59852;43.086;25.634;2024-01-06T01:27:03;98512.28;;;10.19;nan
58668;BME280;59852;43.086;25.634;2024-01-06T01:29:28;98512.53;;;10.16;nan
58668;BME280;59852;43.086;25.634;2024-01-06T01:31:54;98515.03;;;10.17;nan
58668;BME280;59852;43.086;25.634;2024-01-06T01:34:19;98495.91;;;10.17;nan
58668;BME280;59852;43.086;25.634;2024-01-06T01:36:44;98486.50;;;10.14;nan
58668;BME280;59852;43.086;25.634;2024-01-06T01:39:10;98483.75;;;10.04;nan
58668;BME280;59852;43.086;25.634;2024-01-06T01:41:35;98477.69;;;10.04;nan
58668;BME280;59852;43.086;25.634;2024-01-06T01:44:01;98464.63;;;10.04;nan
58668;BME280;59852;43.086;25.634;2024-01-06T01:46:26;98455.56;;;9.97;nan
58668;BME280;59852;43.086;25.634;2024-01-06T01:48:53;98454.59;;;9.98;nan
58668;BME280;59852;43.086;25.634;2024-01-06T01:51:20;98462.59;;;10.07;nan
58668;BME280;59852;43.086;25.634;2024-01-06T01:53:45;98465.44;;;10.04;nan
58668;BME280;59852;43.086;25.634;2024-01-06T01:56:10;98462.03;;;10.15;nan
58668;BME280;59852;43.086;25.634;2024-01-06T01:58:36;98467.66;;;10.22;nan
58668;BME280;59852;43.086;25.634;2024-01-06T02:01:02;98464.66;;;10.15;nan
58668;BME280;59852;43.086;25.634;2024-01-06T02:03:27;98460.84;;;10.19;nan
58668;BME280;59852;43.086;25.634;2024-01-06T02:05:54;98460.84;;;10.19;nan
58668;BME280;59852;43.086;25.634;2024-01-06T02:08:19;98460.66;;;10.22;nan
58668;BME280;59852;43.086;25.634;2024-01-06T02:10:44;98462.44;;;10.22;nan
58668;BME280;59852;43.086;25.634;2024-01-06T02:13:10;98464.19;;;10.21;nan
58668;BME280;59852;43.086;25.634;2024-01-06T02:15:36;98450.41;;;10.19;nan
58668;BME280;59852;43.086;25.634;2024-01-06T02:18:02;98456.69;;;10.17;nan
58668;BME280;59852;43.086;25.634;2024-01-06T02:20:28;98442.16;;;10.13;nan
58668;BME280;59852;43.086;25.634;2024-01-06T02:22:54;98426.25;;;10.04;nan
58668;BME280;59852;43.086;25.634;2024-01-06T02:25:19;98436.09;;;10.01;nan
58668;BME280;59852;43.086;25.634;2024-01-06T02:27:44;98423.13;;;9.99;nan
58668;BME280;59852;43.086;25.634;2024-01-06T02:30:10;98425.28;;;9.94;nan
58668;BME280;59852;43.086;25.634;2024-01-06T02:32:35;98432.63;;;10.00;nan
58668;BME280;59852;43.086;25.634;2024-01-06T02:35:00;98423.84;;;10.01;nan
58668;BME280;59852;43.086;25.634;2024-01-06T02:37:26;98438.50;;;10.04;nan
58668;BME280;59852;43.086;25.634;2024-01-06T02:39:52;98434.09;;;10.04;nan
58668;BME280;59852;43.086;25.634;2024-01-06T02:42:18;98437.03;;;10.00;nan
58668;BME280;59852;43.086;25.634;2024-01-06T02:44:43;98433.59;;;9.99;nan
58668;BME280;59852;43.086;25.634;2024-01-06T02:47:08;98425.63;;;10.01;nan
58668;BME280;59852;43.086;25.634;2024-01-06T02:49:34;98424.59;;;10.03;nan
58668;BME280;59852;43.086;25.634;2024-01-06T02:51:59;98429.44;;;9.97;nan
58668;BME280;59852;43.086;25.634;2024-01-06T02:54:24;98423.28;;;10.09;nan
58668;BME280;59852;43.086;25.634;2024-01-06T02:56:50;98419.59;;;10.12;nan
58668;BME280;59852;43.086;25.634;2024-01-06T02:59:15;98417.81;;;10.12;nan
58668;BME280;59852;43.086;25.634;2024-01-06T03:01:40;98426.13;;;10.06;nan
58668;BME280;59852;43.086;25.634;2024-01-06T03:04:06;98420.78;;;10.07;nan
58668;BME280;59852;43.086;25.634;2024-01-06T03:06:31;98424.78;;;10.00;nan
58668;BME280;59852;43.086;25.634;2024-01-06T03:08:56;98426.56;;;10.00;nan
58668;BME280;59852;43.086;25.634;2024-01-06T03:11:22;98432.28;;;9.94;nan
58668;BME280;59852;43.086;25.634;2024-01-06T03:13:47;98437.59;;;9.92;nan
58668;BME280;59852;43.086;25.634;2024-01-06T03:16:12;98438.38;;;9.82;nan
58668;BME280;59852;43.086;25.634;2024-01-06T03:18:38;98435.88;;;9.80;nan
58668;BME280;59852;43.086;25.634;2024-01-06T03:21:03;98436.50;;;9.84;nan
58668;BME280;59852;43.086;25.634;2024-01-06T03:23:28;98439.13;;;9.84;nan
58668;BME280;59852;43.086;25.634;2024-01-06T03:25:54;98435.22;;;9.89;nan
58668;BME280;59852;43.086;25.634;2024-01-06T03:28:19;98445.00;;;9.74;nan
58668;BME280;59852;43.086;25.634;2024-01-06T03:30:44;98443.22;;;9.75;nan
58668;BME280;59852;43.086;25.634;2024-01-06T03:33:10;98437.91;;;9.76;nan
58668;BME280;59852;43.086;25.634;2024-01-06T03:35:37;98453.06;;;9.71;nan
58668;BME280;59852;43.086;25.634;2024-01-06T03:38:02;98451.00;;;9.64;nan
58668;BME280;59852;43.086;25.634;2024-01-06T03:40:27;98454.16;;;9.56;nan
58668;BME280;59852;43.086;25.634;2024-01-06T03:42:53;98441.00;;;9.82;nan
58668;BME280;59852;43.086;25.634;2024-01-06T03:45:19;98443.56;;;9.70;nan
58668;BME280;59852;43.086;25.634;2024-01-06T03:47:44;98444.25;;;9.72;nan
58668;BME280;59852;43.086;25.634;2024-01-06T03:50:09;98456.41;;;9.73;nan
58668;BME280;59852;43.086;25.634;2024-01-06T03:52:35;98452.53;;;9.90;nan
58668;BME280;59852;43.086;25.634;2024-01-06T03:55:00;98450.28;;;9.86;nan
58668;BME280;59852;43.086;25.634;2024-01-06T03:57:25;98448.56;;;9.73;nan
58668;BME280;59852;43.086;25.634;2024-01-06T03:59:50;98448.94;;;9.80;nan
58668;BME280;59852;43.086;25.634;2024-01-06T04:02:16;98446.69;;;9.75;nan
58668;BME280;59852;43.086;25.634;2024-01-06T04:04:41;98440.22;;;9.68;nan
58668;BME280;59852;43.086;25.634;2024-01-06T04:07:06;98441.59;;;9.61;nan
58668;BME280;59852;43.086;25.634;2024-01-06T04:09:32;98441.59;;;9.61;nan
58668;BME280;59852;43.086;25.634;2024-01-06T04:11:57;98445.03;;;9.62;nan
58668;BME280;59852;43.086;25.634;2024-01-06T04:14:23;98442.50;;;9.49;nan
58668;BME280;59852;43.086;25.634;2024-01-06T04:16:48;98446.88;;;9.48;nan
58668;BME280;59852;43.086;25.634;2024-01-06T04:19:13;98442.38;;;9.51;nan
58668;BME280;59852;43.086;25.634;2024-01-06T04:21:40;98444.09;;;9.63;nan
58668;BME280;59852;43.086;25.634;2024-01-06T04:24:05;98444.56;;;9.57;nan
58668;BME280;59852;43.086;25.634;2024-01-06T04:26:30;98449.25;;;9.52;nan
58668;BME280;59852;43.086;25.634;2024-01-06T04:28:56;98448.31;;;9.53;nan
58668;BME280;59852;43.086;25.634;2024-01-06T04:31:21;98457.81;;;9.54;nan
58668;BME280;59852;43.086;25.634;2024-01-06T04:33:46;98460.34;;;9.55;nan
58668;BME280;59852;43.086;25.634;2024-01-06T04:36:12;98464.56;;;9.45;nan
58668;BME280;59852;43.086;25.634;2024-01-06T04:38:37;98456.72;;;9.45;nan
58668;BME280;59852;43.086;25.634;2024-01-06T04:41:02;98463.91;;;9.54;nan
58668;BME280;59852;43.086;25.634;2024-01-06T04:43:28;98466.59;;;9.53;nan
58668;BME280;59852;43.086;25.634;2024-01-06T04:45:53;98468.16;;;9.55;nan
58668;BME280;59852;43.086;25.634;2024-01-06T04:48:18;98469.94;;;9.55;nan
58668;BME280;59852;43.086;25.634;2024-01-06T04:50:44;98468.06;;;9.57;nan
58668;BME280;59852;43.086;25.634;2024-01-06T04:53:09;98468.72;;;9.47;nan
58668;BME280;59852;43.086;25.634;2024-01-06T04:55:34;98484.25;;;9.49;nan
58668;BME280;59852;43.086;25.634;2024-01-06T04:58:00;98488.56;;;9.37;nan
58668;BME280;59852;43.086;25.634;2024-01-06T05:00:25;98477.38;;;9.48;nan
58668;BME280;59852;43.086;25.634;2024-01-06T05:02:51;98481.41;;;9.52;nan
58668;BME280;59852;43.086;25.634;2024-01-06T05:05:16;98482.66;;;9.59;nan
58668;BME280;59852;43.086;25.634;2024-01-06T05:07:42;98480.22;;;9.45;nan
58668;BME280;59852;43.086;25.634;2024-01-06T05:10:07;98475.00;;;9.32;nan
58668;BME280;59852;43.086;25.634;2024-01-06T05:12:33;98470.53;;;9.34;nan
58668;BME280;59852;43.086;25.634;2024-01-06T05:14:58;98473.88;;;9.36;nan
58668;BME280;59852;43.086;25.634;2024-01-06T05:17:23;98478.63;;;9.55;nan
58668;BME280;59852;43.086;25.634;2024-01-06T05:19:49;98479.09;;;9.36;nan
58668;BME280;59852;43.086;25.634;2024-01-06T05:22:14;98470.78;;;9.42;nan
58668;BME280;59852;43.086;25.634;2024-01-06T05:24:39;98477.69;;;9.43;nan
58668;BME280;59852;43.086;25.634;2024-01-06T05:27:04;98473.81;;;9.49;nan
58668;BME280;59852;43.086;25.634;2024-01-06T05:29:30;98471.22;;;9.49;nan
58668;BME280;59852;43.086;25.634;2024-01-06T05:31:55;98476.84;;;9.43;nan
58668;BME280;59852;43.086;25.634;2024-01-06T05:34:20;98469.25;;;9.40;nan
58668;BME280;59852;43.086;25.634;2024-01-06T05:36:46;98457.22;;;9.50;nan
58668;BME280;59852;43.086;25.634;2024-01-06T05:39:11;98459.22;;;9.46;nan
58668;BME280;59852;43.086;25.634;2024-01-06T05:41:39;98473.66;;;9.63;nan
58668;BME280;59852;43.086;25.634;2024-01-06T05:44:05;98464.72;;;9.55;nan
58668;BME280;59852;43.086;25.634;2024-01-06T05:46:30;98469.53;;;9.48;nan
58668;BME280;59852;43.086;25.634;2024-01-06T05:48:56;98474.53;;;9.51;nan
58668;BME280;59852;43.086;25.634;2024-01-06T05:51:21;98468.38;;;9.52;nan
58668;BME280;59852;43.086;25.634;2024-01-06T05:53:47;98464.50;;;9.58;nan
58668;BME280;59852;43.086;25.634;2024-01-06T05:56:21;98461.78;;;9.59;nan
58668;BME280;59852;43.086;25.634;2024-01-06T05:58:47;98461.13;;;9.68;nan
58668;BME280;59852;43.086;25.634;2024-01-06T06:01:13;98449.50;;;9.72;nan
58668;BME280;59852;43.086;25.634;2024-01-06T06:03:38;98454.72;;;9.72;nan
58668;BME280;59852;43.086;25.634;2024-01-06T06:06:04;98456.59;;;9.70;nan
58668;BME280;59852;43.086;25.634;2024-01-06T06:08:29;98450.31;;;9.73;nan
58668;BME280;59852;43.086;25.634;2024-01-06T06:10:54;98451.38;;;9.70;nan
58668;BME280;59852;43.086;25.634;2024-01-06T06:13:29;98450.84;;;9.78;nan
58668;BME280;59852;43.086;25.634;2024-01-06T06:15:54;98451.06;;;9.75;nan
58668;BME280;59852;43.086;25.634;2024-01-06T06:18:20;98445.00;;;9.74;nan
58668;BME280;59852;43.086;25.634;2024-01-06T06:20:45;98440.28;;;9.80;nan
58668;BME280;59852;43.086;25.634;2024-01-06T06:23:11;98445.66;;;9.89;nan
58668;BME280;59852;43.086;25.634;2024-01-06T06:25:38;98441.97;;;9.92;nan
58668;BME280;59852;43.086;25.634;2024-01-06T06:28:03;98448.03;;;9.92;nan
58668;BME280;59852;43.086;25.634;2024-01-06T06:30:28;98450.66;;;9.92;nan
58668;BME280;59852;43.086;25.634;2024-01-06T06:32:54;98438.53;;;9.91;nan
58668;BME280;59852;43.086;25.634;2024-01-06T06:35:19;98439.75;;;9.98;nan
58668;BME280;59852;43.086;25.634;2024-01-06T06:37:44;98443.81;;;10.02;nan
58668;BME280;59852;43.086;25.634;2024-01-06T06:40:10;98450.31;;;9.97;nan
58668;BME280;59852;43.086;25.634;2024-01-06T06:42:35;98435.41;;;10.10;nan
58668;BME280;59852;43.086;25.634;2024-01-06T06:45:00;98433.06;;;10.18;nan
58668;BME280;59852;43.086;25.634;2024-01-06T06:47:26;98435.44;;;10.21;nan
58668;BME280;59852;43.086;25.634;2024-01-06T06:49:51;98428.66;;;10.19;nan
58668;BME280;59852;43.086;25.634;2024-01-06T06:52:16;98425.63;;;10.25;nan
58668;BME280;59852;43.086;25.634;2024-01-06T06:54:42;98425.41;;;10.39;nan
58668;BME280;59852;43.086;25.634;2024-01-06T06:57:07;98424.00;;;10.46;nan
58668;BME280;59852;43.086;25.634;2024-01-06T06:59:32;98427.34;;;10.71;nan
58668;BME280;59852;43.086;25.634;2024-01-06T07:01:57;98423.56;;;10.63;nan
58668;BME280;59852;43.086;25.634;2024-01-06T07:04:23;98425.22;;;10.76;nan
58668;BME280;59852;43.086;25.634;2024-01-06T07:06:49;98417.88;;;11.03;nan
58668;BME280;59852;43.086;25.634;2024-01-06T07:09:15;98418.75;;;11.47;nan
58668;BME280;59852;43.086;25.634;2024-01-06T07:11:40;98410.59;;;13.38;nan
58668;BME280;59852;43.086;25.634;2024-01-06T07:14:05;98410.59;;;13.38;nan
58668;BME280;59852;43.086;25.634;2024-01-06T07:16:31;98408.88;;;17.96;nan
58668;BME280;59852;43.086;25.634;2024-01-06T07:18:56;98415.22;;;20.24;nan
58668;BME280;59852;43.086;25.634;2024-01-06T07:21:21;98411.72;;;16.68;nan
58668;BME280;59852;43.086;25.634;2024-01-06T07:23:48;98420.84;;;16.74;nan
58668;BME280;59852;43.086;25.634;2024-01-06T07:26:13;98420.72;;;13.62;nan
58668;BME280;59852;43.086;25.634;2024-01-06T07:28:38;98427.72;;;12.71;nan
58668;BME280;59852;43.086;25.634;2024-01-06T07:31:04;98420.25;;;12.25;nan
58668;BME280;59852;43.086;25.634;2024-01-06T07:33:29;98415.44;;;11.77;nan
58668;BME280;59852;43.086;25.634;2024-01-06T07:35:55;98407.78;;;11.53;nan
58668;BME280;59852;43.086;25.634;2024-01-06T07:38:20;98412.94;;;11.43;nan
58668;BME280;59852;43.086;25.634;2024-01-06T07:40:47;98411.16;;;11.33;nan
58668;BME280;59852;43.086;25.634;2024-01-06T07:43:12;98409.16;;;11.25;nan
58668;BME280;59852;43.086;25.634;2024-01-06T07:45:38;98405.09;;;11.32;nan
58668;BME280;59852;43.086;25.634;2024-01-06T07:48:03;98409.69;;;11.40;nan
58668;BME280;59852;43.086;25.634;2024-01-06T07:50:28;98400.09;;;11.29;nan
58668;BME280;59852;43.086;25.634;2024-01-06T07:52:54;98406.03;;;11.20;nan
58668;BME280;59852;43.086;25.634;2024-01-06T07:55:19;98400.91;;;11.30;nan
58668;BME280;59852;43.086;25.634;2024-01-06T07:57:45;98401.53;;;11.22;nan
58668;BME280;59852;43.086;25.634;2024-01-06T08:00:10;98397.50;;;11.18;nan
58668;BME280;59852;43.086;25.634;2024-01-06T08:02:39;98407.94;;;11.29;nan
58668;BME280;59852;43.086;25.634;2024-01-06T08:05:05;98402.50;;;11.21;nan
58668;BME280;59852;43.086;25.634;2024-01-06T08:07:32;98403.66;;;11.28;nan
58668;BME280;59852;43.086;25.634;2024-01-06T08:09:57;98408.56;;;11.22;nan
58668;BME280;59852;43.086;25.634;2024-01-06T08:12:22;98408.31;;;11.25;nan
58668;BME280;59852;43.086;25.634;2024-01-06T08:14:47;98409.84;;;11.27;nan
58668;BME280;59852;43.086;25.634;2024-01-06T08:17:13;98410.69;;;11.28;nan
58668;BME280;59852;43.086;25.634;2024-01-06T08:19:38;98407.22;;;11.38;nan
58668;BME280;59852;43.086;25.634;2024-01-06T08:22:03;98417.91;;;11.46;nan
58668;BME280;59852;43.086;25.634;2024-01-06T08:24:29;98414.59;;;11.44;nan
58668;BME280;59852;43.086;25.634;2024-01-06T08:26:54;98409.34;;;11.44;nan
58668;BME280;59852;43.086;25.634;2024-01-06T08:29:19;98406.13;;;11.52;nan
58668;BME280;59852;43.086;25.634;2024-01-06T08:31:45;98408.34;;;11.57;nan
58668;BME280;59852;43.086;25.634;2024-01-06T08:34:10;98400.31;;;11.69;nan
58668;BME280;59852;43.086;25.634;2024-01-06T08:36:36;98405.13;;;11.64;nan
58668;BME280;59852;43.086;25.634;2024-01-06T08:39:01;98406.16;;;11.73;nan
58668;BME280;59852;43.086;25.634;2024-01-06T08:41:26;98400.44;;;11.68;nan
58668;BME280;59852;43.086;25.634;2024-01-06T08:43:52;98390.19;;;11.76;nan
58668;BME280;59852;43.086;25.634;2024-01-06T08:46:17;98385.06;;;11.74;nan
58668;BME280;59852;43.086;25.634;2024-01-06T08:48:43;98391.97;;;11.75;nan
58668;BME280;59852;43.086;25.634;2024-01-06T08:51:08;98383.91;;;11.67;nan
58668;BME280;59852;43.086;25.634;2024-01-06T08:53:33;98378.75;;;11.77;nan
58668;BME280;59852;43.086;25.634;2024-01-06T08:55:59;98378.56;;;11.80;nan
58668;BME280;59852;43.086;25.634;2024-01-06T08:58:24;98371.53;;;11.81;nan
58668;BME280;59852;43.086;25.634;2024-01-06T09:00:50;98366.84;;;11.84;nan
58668;BME280;59852;43.086;25.634;2024-01-06T09:03:15;98372.09;;;11.84;nan
58668;BME280;59852;43.086;25.634;2024-01-06T09:05:41;98381.59;;;11.85;nan
58668;BME280;59852;43.086;25.634;2024-01-06T09:08:07;98373.88;;;11.84;nan
58668;BME280;59852;43.086;25.634;2024-01-06T09:10:32;98366.59;;;11.87;nan
58668;BME280;59852;43.086;25.634;2024-01-06T09:12:57;98366.00;;;11.84;nan
58668;BME280;59852;43.086;25.634;2024-01-06T09:15:23;98356.44;;;11.94;nan
58668;BME280;59852;43.086;25.634;2024-01-06T09:17:49;98354.66;;;11.94;nan
58668;BME280;59852;43.086;25.634;2024-01-06T09:20:14;98344.50;;;12.01;nan
58668;BME280;59852;43.086;25.634;2024-01-06T09:22:39;98344.91;;;12.06;nan
58668;BME280;59852;43.086;25.634;2024-01-06T09:25:05;98348.13;;;12.10;nan
58668;BME280;59852;43.086;25.634;2024-01-06T09:27:31;98337.13;;;12.16;nan
58668;BME280;59852;43.086;25.634;2024-01-06T09:29:57;98326.56;;;12.27;nan
58668;BME280;59852;43.086;25.634;2024-01-06T09:32:23;98324.53;;;12.30;nan
58668;BME280;59852;43.086;25.634;2024-01-06T09:34:49;98324.66;;;12.39;nan
58668;BME280;59852;43.086;25.634;2024-01-06T09:37:14;98330.50;;;12.42;nan
58668;BME280;59852;43.086;25.634;2024-01-06T09:39:39;98326.50;;;12.48;nan
58668;BME280;59852;43.086;25.634;2024-01-06T09:42:05;98330.13;;;12.56;nan
58668;BME280;59852;43.086;25.634;2024-01-06T09:44:31;98320.34;;;12.58;nan
58668;BME280;59852;43.086;25.634;2024-01-06T09:46:57;98322.59;;;12.63;nan
58668;BME280;59852;43.086;25.634;2024-01-06T09:49:24;98324.38;;;12.62;nan
58668;BME280;59852;43.086;25.634;2024-01-06T09:51:51;98322.72;;;12.61;nan
58668;BME280;59852;43.086;25.634;2024-01-06T09:54:22;98312.13;;;12.73;nan
58668;BME280;59852;43.086;25.634;2024-01-06T09:56:47;98302.63;;;12.81;nan
58668;BME280;59852;43.086;25.634;2024-01-06T09:59:14;98297.78;;;12.86;nan
58668;BME280;59852;43.086;25.634;2024-01-06T10:01:39;98295.75;;;12.90;nan
58668;BME280;59852;43.086;25.634;2024-01-06T10:04:04;98291.03;;;12.93;nan
58668;BME280;59852;43.086;25.634;2024-01-06T10:06:30;98290.66;;;12.98;nan
58668;BME280;59852;43.086;25.634;2024-01-06T10:08:55;98280.56;;;13.13;nan
58668;BME280;59852;43.086;25.634;2024-01-06T10:11:23;98273.00;;;13.19;nan
58668;BME280;59852;43.086;25.634;2024-01-06T10:13:49;98267.34;;;13.24;nan
58668;BME280;59852;43.086;25.634;2024-01-06T10:16:15;98248.13;;;13.24;nan
58668;BME280;59852;43.086;25.634;2024-01-06T10:18:41;98246.47;;;13.32;nan
58668;BME280;59852;43.086;25.634;2024-01-06T10:21:06;98241.50;;;13.29;nan
58668;BME280;59852;43.086;25.634;2024-01-06T10:23:32;98244.00;;;13.31;nan
58668;BME280;59852;43.086;25.634;2024-01-06T10:25:57;98236.66;;;13.25;nan
58668;BME280;59852;43.086;25.634;2024-01-06T10:28:23;98235.81;;;13.24;nan
58668;BME280;59852;43.086;25.634;2024-01-06T10:30:49;98227.94;;;13.24;nan
58668;BME280;59852;43.086;25.634;2024-01-06T10:33:16;98222.41;;;13.27;nan
58668;BME280;59852;43.086;25.634;2024-01-06T10:35:41;98214.41;;;13.29;nan
58668;BME280;59852;43.086;25.634;2024-01-06T10:38:07;98220.50;;;13.29;nan
58668;BME280;59852;43.086;25.634;2024-01-06T10:40:32;98219.78;;;13.37;nan
58668;BME280;59852;43.086;25.634;2024-01-06T10:42:58;98213.56;;;13.38;nan
58668;BME280;59852;43.086;25.634;2024-01-06T10:45:27;98218.13;;;13.36;nan
58668;BME280;59852;43.086;25.634;2024-01-06T10:47:53;98210.13;;;13.47;nan
58668;BME280;59852;43.086;25.634;2024-01-06T10:50:18;98216.44;;;13.44;nan
58668;BME280;59852;43.086;25.634;2024-01-06T10:52:44;98209.00;;;13.40;nan
58668;BME280;59852;43.086;25.634;2024-01-06T10:55:11;98200.31;;;13.39;nan
58668;BME280;59852;43.086;25.634;2024-01-06T10:57:39;98197.81;;;13.38;nan
58668;BME280;59852;43.086;25.634;2024-01-06T11:00:08;98202.50;;;13.34;nan
58668;BME280;59852;43.086;25.634;2024-01-06T11:02:35;98205.97;;;13.25;nan
58668;BME280;59852;43.086;25.634;2024-01-06T11:05:00;98196.28;;;13.35;nan
58668;BME280;59852;43.086;25.634;2024-01-06T11:07:26;98201.28;;;13.19;nan
58668;BME280;59852;43.086;25.634;2024-01-06T11:09:57;98197.25;;;13.25;nan
58668;BME280;59852;43.086;25.634;2024-01-06T11:12:23;98208.72;;;13.24;nan
58668;BME280;59852;43.086;25.634;2024-01-06T11:14:48;98203.75;;;13.30;nan
58668;BME280;59852;43.086;25.634;2024-01-06T11:17:32;98195.88;;;13.20;nan
58668;BME280;59852;43.086;25.634;2024-01-06T11:20:05;98193.66;;;13.26;nan
58668;BME280;59852;43.086;25.634;2024-01-06T11:22:31;98184.13;;;13.25;nan
58668;BME280;59852;43.086;25.634;2024-01-06T11:25:03;98196.56;;;13.23;nan
58668;BME280;59852;43.086;25.634;2024-01-06T11:27:29;98188.53;;;13.14;nan
58668;BME280;59852;43.086;25.634;2024-01-06T11:29:56;98186.47;;;13.08;nan
58668;BME280;59852;43.086;25.634;2024-01-06T11:32:37;98187.16;;;13.10;nan
58668;BME280;59852;43.086;25.634;2024-01-06T11:40:22;98177.78;;;13.08;nan
58668;BME280;59852;43.086;25.634;2024-01-06T11:45:25;98172.09;;;13.03;nan
58668;BME280;59852;43.086;25.634;2024-01-06T11:47:51;98178.84;;;13.05;nan
58668;BME280;59852;43.086;25.634;2024-01-06T11:50:18;98170.28;;;13.03;nan
58668;BME280;59852;43.086;25.634;2024-01-06T11:52:44;98166.69;;;13.04;nan
58668;BME280;59852;43.086;25.634;2024-01-06T11:55:10;98162.03;;;12.98;nan
58668;BME280;59852;43.086;25.634;2024-01-06T11:57:35;98162.13;;;12.97;nan
58668;BME280;59852;43.086;25.634;2024-01-06T12:00:00;98158.53;;;12.88;nan
58668;BME280;59852;43.086;25.634;2024-01-06T12:02:26;98153.44;;;12.96;nan
58668;BME280;59852;43.086;25.634;2024-01-06T12:04:52;98144.72;;;12.96;nan
58668;BME280;59852;43.086;25.634;2024-01-06T12:07:20;98155.81;;;12.89;nan
58668;BME280;59852;43.086;25.634;2024-01-06T12:09:50;98157.44;;;12.90;nan
58668;BME280;59852;43.086;25.634;2024-01-06T12:12:15;98150.53;;;12.80;nan
58668;BME280;59852;43.086;25.634;2024-01-06T12:14:41;98156.88;;;12.87;nan
58668;BME280;59852;43.086;25.634;2024-01-06T12:17:11;98149.16;;;12.76;nan
58668;BME280;59852;43.086;25.634;2024-01-06T12:19:38;98144.03;;;12.74;nan
58668;BME280;59852;43.086;25.634;2024-01-06T12:22:04;98152.59;;;12.76;nan
58668;BME280;59852;43.086;25.634;2024-01-06T12:24:29;98148.75;;;12.80;nan
58668;BME280;59852;43.086;25.634;2024-01-06T12:26:56;98151.91;;;12.84;nan
58668;BME280;59852;43.086;25.634;2024-01-06T12:29:22;98143.75;;;12.97;nan
58668;BME280;59852;43.086;25.634;2024-01-06T12:31:48;98145.97;;;12.91;nan
58668;BME280;59852;43.086;25.634;2024-01-06T12:34:13;98150.94;;;12.85;nan
58668;BME280;59852;43.086;25.634;2024-01-06T12:36:39;98146.13;;;12.90;nan
58668;BME280;59852;43.086;25.634;2024-01-06T12:39:06;98145.97;;;12.82;nan
58668;BME280;59852;43.086;25.634;2024-01-06T12:41:36;98149.84;;;12.78;nan
58668;BME280;59852;43.086;25.634;2024-01-06T12:44:02;98145.00;;;12.73;nan
58668;BME280;59852;43.086;25.634;2024-01-06T12:46:27;98153.72;;;12.74;nan
58668;BME280;59852;43.086;25.634;2024-01-06T12:48:53;98148.91;;;12.79;nan
58668;BME280;59852;43.086;25.634;2024-01-06T12:51:18;98151.78;;;12.76;nan
58668;BME280;59852;43.086;25.634;2024-01-06T12:53:43;98143.91;;;12.76;nan
58668;BME280;59852;43.086;25.634;2024-01-06T12:56:09;98149.56;;;12.81;nan
58668;BME280;59852;43.086;25.634;2024-01-06T12:58:34;98147.63;;;12.73;nan
58668;BME280;59852;43.086;25.634;2024-01-06T13:01:00;98151.63;;;12.77;nan
58668;BME280;59852;43.086;25.634;2024-01-06T13:03:26;98152.47;;;12.97;nan
58668;BME280;59852;43.086;25.634;2024-01-06T13:05:51;98152.06;;;12.92;nan
58668;BME280;59852;43.086;25.634;2024-01-06T13:08:16;98146.81;;;12.73;nan
58668;BME280;59852;43.086;25.634;2024-01-06T13:10:42;98153.41;;;12.67;nan
58668;BME280;59852;43.086;25.634;2024-01-06T13:13:08;98152.88;;;12.73;nan
58668;BME280;59852;43.086;25.634;2024-01-06T13:15:33;98152.88;;;12.73;nan